sensor_id;sensor_type;location;lat;lon;timestamp;P1;durP1;ratioP1;P2;durP2;ratioP2
10651;SDS011;5374;42.742;23.266;2023-08-31T00:02:35;6.10;;;2.70;;
10651;SDS011;5374;42.742;23.266;2023-08-31T00:05:23;7.07;;;2.53;;
10651;SDS011;5374;42.742;23.266;2023-08-31T00:08:11;2.90;;;2.30;;
10651;SDS011;5374;42.742;23.266;2023-08-31T00:10:59;7.57;;;2.83;;
10651;SDS011;5374;42.742;23.266;2023-08-31T00:13:47;10.73;;;2.87;;
10651;SDS011;5374;42.742;23.266;2023-08-31T00:16:34;5.50;;;2.83;;
10651;SDS011;5374;42.742;23.266;2023-08-31T00:19:22;6.73;;;2.87;;
10651;SDS011;5374;42.742;23.266;2023-08-31T00:22:09;5.50;;;3.23;;
10651;SDS011;5374;42.742;23.266;2023-08-31T00:24:58;6.00;;;3.13;;
10651;SDS011;5374;42.742;23.266;2023-08-31T00:27:45;3.73;;;2.80;;
10651;SDS011;5374;42.742;23.266;2023-08-31T00:30:33;4.63;;;2.87;;
10651;SDS011;5374;42.742;23.266;2023-08-31T00:33:21;6.17;;;3.03;;
10651;SDS011;5374;42.742;23.266;2023-08-31T00:36:08;7.47;;;2.90;;
10651;SDS011;5374;42.742;23.266;2023-08-31T00:38:55;3.73;;;2.57;;
10651;SDS011;5374;42.742;23.266;2023-08-31T00:41:43;3.97;;;2.90;;
10651;SDS011;5374;42.742;23.266;2023-08-31T00:44:31;8.77;;;3.20;;
10651;SDS011;5374;42.742;23.266;2023-08-31T00:47:18;6.43;;;2.73;;
10651;SDS011;5374;42.742;23.266;2023-08-31T00:50:06;5.87;;;3.37;;
10651;SDS011;5374;42.742;23.266;2023-08-31T00:52:54;4.57;;;2.80;;
10651;SDS011;5374;42.742;23.266;2023-08-31T00:55:41;6.43;;;2.97;;
10651;SDS011;5374;42.742;23.266;2023-08-31T00:58:31;5.03;;;2.83;;
10651;SDS011;5374;42.742;23.266;2023-08-31T01:01:21;4.77;;;2.90;;
10651;SDS011;5374;42.742;23.266;2023-08-31T01:04:16;6.23;;;3.70;;
10651;SDS011;5374;42.742;23.266;2023-08-31T01:07:11;5.87;;;3.10;;
10651;SDS011;5374;42.742;23.266;2023-08-31T01:10:10;6.83;;;3.17;;
10651;SDS011;5374;42.742;23.266;2023-08-31T01:13:05;6.33;;;3.00;;
10651;SDS011;5374;42.742;23.266;2023-08-31T01:16:00;3.63;;;2.80;;
10651;SDS011;5374;42.742;23.266;2023-08-31T01:18:52;6.23;;;3.40;;
10651;SDS011;5374;42.742;23.266;2023-08-31T01:21:40;7.13;;;3.10;;
10651;SDS011;5374;42.742;23.266;2023-08-31T01:24:33;5.13;;;3.10;;
10651;SDS011;5374;42.742;23.266;2023-08-31T01:27:21;6.17;;;3.00;;
10651;SDS011;5374;42.742;23.266;2023-08-31T01:30:10;5.47;;;3.10;;
10651;SDS011;5374;42.742;23.266;2023-08-31T01:32:57;4.53;;;2.80;;
10651;SDS011;5374;42.742;23.266;2023-08-31T01:35:45;8.57;;;3.20;;
10651;SDS011;5374;42.742;23.266;2023-08-31T01:38:38;6.80;;;3.00;;
10651;SDS011;5374;42.742;23.266;2023-08-31T01:41:32;4.97;;;3.17;;
10651;SDS011;5374;42.742;23.266;2023-08-31T01:44:21;4.80;;;3.27;;
10651;SDS011;5374;42.742;23.266;2023-08-31T01:47:08;3.93;;;2.70;;
10651;SDS011;5374;42.742;23.266;2023-08-31T01:49:56;5.70;;;2.80;;
10651;SDS011;5374;42.742;23.266;2023-08-31T01:52:43;5.33;;;2.93;;
10651;SDS011;5374;42.742;23.266;2023-08-31T01:55:31;9.00;;;3.73;;
10651;SDS011;5374;42.742;23.266;2023-08-31T01:58:19;7.57;;;3.40;;
10651;SDS011;5374;42.742;23.266;2023-08-31T02:01:07;3.87;;;2.80;;
10651;SDS011;5374;42.742;23.266;2023-08-31T02:03:54;5.83;;;3.10;;
10651;SDS011;5374;42.742;23.266;2023-08-31T02:06:41;6.37;;;2.80;;
10651;SDS011;5374;42.742;23.266;2023-08-31T02:09:28;7.97;;;3.10;;
10651;SDS011;5374;42.742;23.266;2023-08-31T02:12:15;5.27;;;2.63;;
10651;SDS011;5374;42.742;23.266;2023-08-31T02:15:05;6.80;;;2.90;;
10651;SDS011;5374;42.742;23.266;2023-08-31T02:17:52;5.93;;;2.90;;
10651;SDS011;5374;42.742;23.266;2023-08-31T02:20:40;6.63;;;2.90;;
10651;SDS011;5374;42.742;23.266;2023-08-31T02:23:27;4.60;;;2.70;;
10651;SDS011;5374;42.742;23.266;2023-08-31T02:26:14;5.97;;;2.80;;
10651;SDS011;5374;42.742;23.266;2023-08-31T02:29:01;7.70;;;2.70;;
10651;SDS011;5374;42.742;23.266;2023-08-31T02:31:49;4.17;;;2.83;;
10651;SDS011;5374;42.742;23.266;2023-08-31T02:34:36;4.33;;;2.70;;
10651;SDS011;5374;42.742;23.266;2023-08-31T02:37:23;6.10;;;2.70;;
10651;SDS011;5374;42.742;23.266;2023-08-31T02:40:11;5.03;;;2.80;;
10651;SDS011;5374;42.742;23.266;2023-08-31T02:42:58;6.73;;;3.07;;
10651;SDS011;5374;42.742;23.266;2023-08-31T02:45:45;5.50;;;2.80;;
10651;SDS011;5374;42.742;23.266;2023-08-31T02:48:34;5.03;;;2.63;;
10651;SDS011;5374;42.742;23.266;2023-08-31T02:51:21;5.67;;;2.47;;
10651;SDS011;5374;42.742;23.266;2023-08-31T02:54:08;4.50;;;2.60;;
10651;SDS011;5374;42.742;23.266;2023-08-31T02:56:55;6.70;;;3.07;;
10651;SDS011;5374;42.742;23.266;2023-08-31T02:59:42;7.50;;;2.80;;
10651;SDS011;5374;42.742;23.266;2023-08-31T03:02:29;9.13;;;2.97;;
10651;SDS011;5374;42.742;23.266;2023-08-31T03:05:19;5.23;;;2.90;;
10651;SDS011;5374;42.742;23.266;2023-08-31T03:08:06;6.13;;;2.80;;
10651;SDS011;5374;42.742;23.266;2023-08-31T03:10:55;7.17;;;2.87;;
10651;SDS011;5374;42.742;23.266;2023-08-31T03:13:43;3.77;;;2.43;;
10651;SDS011;5374;42.742;23.266;2023-08-31T03:16:31;5.43;;;2.60;;
10651;SDS011;5374;42.742;23.266;2023-08-31T03:19:18;4.73;;;2.80;;
10651;SDS011;5374;42.742;23.266;2023-08-31T03:22:06;7.93;;;2.97;;
10651;SDS011;5374;42.742;23.266;2023-08-31T03:24:53;4.23;;;2.53;;
10651;SDS011;5374;42.742;23.266;2023-08-31T03:27:40;7.53;;;2.80;;
10651;SDS011;5374;42.742;23.266;2023-08-31T03:30:28;5.03;;;3.20;;
10651;SDS011;5374;42.742;23.266;2023-08-31T03:33:15;5.70;;;3.00;;
10651;SDS011;5374;42.742;23.266;2023-08-31T03:36:02;6.00;;;3.37;;
10651;SDS011;5374;42.742;23.266;2023-08-31T03:38:52;3.73;;;2.63;;
10651;SDS011;5374;42.742;23.266;2023-08-31T03:41:39;6.67;;;3.20;;
10651;SDS011;5374;42.742;23.266;2023-08-31T03:44:26;7.03;;;3.10;;
10651;SDS011;5374;42.742;23.266;2023-08-31T03:47:13;6.60;;;3.20;;
10651;SDS011;5374;42.742;23.266;2023-08-31T03:50:00;5.30;;;3.10;;
10651;SDS011;5374;42.742;23.266;2023-08-31T03:52:48;5.47;;;2.60;;
10651;SDS011;5374;42.742;23.266;2023-08-31T03:55:37;7.17;;;2.97;;
10651;SDS011;5374;42.742;23.266;2023-08-31T03:58:24;5.97;;;2.90;;
10651;SDS011;5374;42.742;23.266;2023-08-31T04:01:11;9.93;;;2.80;;
10651;SDS011;5374;42.742;23.266;2023-08-31T04:03:59;15.57;;;3.47;;
10651;SDS011;5374;42.742;23.266;2023-08-31T04:06:47;10.07;;;3.00;;
10651;SDS011;5374;42.742;23.266;2023-08-31T04:09:34;7.80;;;3.23;;
10651;SDS011;5374;42.742;23.266;2023-08-31T04:12:23;10.40;;;3.50;;
10651;SDS011;5374;42.742;23.266;2023-08-31T04:15:10;7.30;;;3.03;;
10651;SDS011;5374;42.742;23.266;2023-08-31T04:17:59;7.17;;;3.27;;
10651;SDS011;5374;42.742;23.266;2023-08-31T04:20:47;4.77;;;2.90;;
10651;SDS011;5374;42.742;23.266;2023-08-31T04:23:36;6.20;;;3.00;;
10651;SDS011;5374;42.742;23.266;2023-08-31T04:26:23;7.67;;;3.40;;
10651;SDS011;5374;42.742;23.266;2023-08-31T04:29:12;9.37;;;3.67;;
10651;SDS011;5374;42.742;23.266;2023-08-31T04:31:59;5.37;;;3.17;;
10651;SDS011;5374;42.742;23.266;2023-08-31T04:34:46;7.50;;;3.47;;
10651;SDS011;5374;42.742;23.266;2023-08-31T04:37:33;8.13;;;3.93;;
10651;SDS011;5374;42.742;23.266;2023-08-31T04:40:20;10.73;;;4.00;;
10651;SDS011;5374;42.742;23.266;2023-08-31T04:43:08;6.93;;;3.90;;
10651;SDS011;5374;42.742;23.266;2023-08-31T04:45:57;10.43;;;3.67;;
10651;SDS011;5374;42.742;23.266;2023-08-31T04:48:44;7.70;;;2.93;;
10651;SDS011;5374;42.742;23.266;2023-08-31T04:51:33;7.93;;;3.30;;
10651;SDS011;5374;42.742;23.266;2023-08-31T04:54:22;8.90;;;3.37;;
10651;SDS011;5374;42.742;23.266;2023-08-31T04:57:10;8.90;;;3.70;;
10651;SDS011;5374;42.742;23.266;2023-08-31T04:59:57;8.90;;;3.57;;
10651;SDS011;5374;42.742;23.266;2023-08-31T05:02:46;8.87;;;3.50;;
10651;SDS011;5374;42.742;23.266;2023-08-31T05:05:33;9.53;;;3.70;;
10651;SDS011;5374;42.742;23.266;2023-08-31T05:08:20;10.03;;;3.80;;
10651;SDS011;5374;42.742;23.266;2023-08-31T05:11:08;9.83;;;3.90;;
10651;SDS011;5374;42.742;23.266;2023-08-31T05:13:55;14.27;;;3.80;;
10651;SDS011;5374;42.742;23.266;2023-08-31T05:16:42;8.87;;;3.63;;
10651;SDS011;5374;42.742;23.266;2023-08-31T05:19:31;9.05;;;3.67;;
10651;SDS011;5374;42.742;23.266;2023-08-31T05:22:18;16.80;;;4.18;;
10651;SDS011;5374;42.742;23.266;2023-08-31T05:25:05;11.70;;;4.03;;
10651;SDS011;5374;42.742;23.266;2023-08-31T05:27:53;10.13;;;4.68;;
10651;SDS011;5374;42.742;23.266;2023-08-31T05:30:47;11.48;;;4.22;;
10651;SDS011;5374;42.742;23.266;2023-08-31T05:33:35;12.27;;;4.10;;
10651;SDS011;5374;42.742;23.266;2023-08-31T05:36:24;12.40;;;4.10;;
10651;SDS011;5374;42.742;23.266;2023-08-31T05:39:11;10.50;;;4.72;;
10651;SDS011;5374;42.742;23.266;2023-08-31T05:41:58;12.18;;;4.20;;
10651;SDS011;5374;42.742;23.266;2023-08-31T05:44:45;7.38;;;4.22;;
10651;SDS011;5374;42.742;23.266;2023-08-31T05:47:32;11.10;;;4.20;;
10651;SDS011;5374;42.742;23.266;2023-08-31T05:50:20;10.15;;;3.58;;
10651;SDS011;5374;42.742;23.266;2023-08-31T05:53:08;10.00;;;3.95;;
10651;SDS011;5374;42.742;23.266;2023-08-31T05:55:56;10.75;;;4.22;;
10651;SDS011;5374;42.742;23.266;2023-08-31T05:58:49;6.10;;;3.00;;
10651;SDS011;5374;42.742;23.266;2023-08-31T06:01:40;6.95;;;3.17;;
10651;SDS011;5374;42.742;23.266;2023-08-31T06:04:27;8.50;;;2.75;;
10651;SDS011;5374;42.742;23.266;2023-08-31T06:07:14;7.22;;;2.88;;
10651;SDS011;5374;42.742;23.266;2023-08-31T06:10:03;6.65;;;3.03;;
10651;SDS011;5374;42.742;23.266;2023-08-31T06:12:51;5.80;;;3.08;;
10651;SDS011;5374;42.742;23.266;2023-08-31T06:15:38;5.53;;;2.75;;
10651;SDS011;5374;42.742;23.266;2023-08-31T06:18:25;49.72;;;10.23;;
10651;SDS011;5374;42.742;23.266;2023-08-31T06:21:12;15.40;;;4.07;;
10651;SDS011;5374;42.742;23.266;2023-08-31T06:23:59;14.43;;;3.60;;
10651;SDS011;5374;42.742;23.266;2023-08-31T06:26:48;7.68;;;2.58;;
10651;SDS011;5374;42.742;23.266;2023-08-31T06:29:35;7.15;;;3.00;;
10651;SDS011;5374;42.742;23.266;2023-08-31T06:32:23;5.65;;;2.72;;
10651;SDS011;5374;42.742;23.266;2023-08-31T06:35:10;8.15;;;2.78;;
10651;SDS011;5374;42.742;23.266;2023-08-31T06:37:57;7.50;;;3.25;;
10651;SDS011;5374;42.742;23.266;2023-08-31T06:40:44;5.38;;;3.15;;
10651;SDS011;5374;42.742;23.266;2023-08-31T06:43:34;8.10;;;3.17;;
10651;SDS011;5374;42.742;23.266;2023-08-31T06:46:21;9.65;;;3.00;;
10651;SDS011;5374;42.742;23.266;2023-08-31T06:49:08;7.93;;;2.70;;
10651;SDS011;5374;42.742;23.266;2023-08-31T06:51:55;5.95;;;2.85;;
10651;SDS011;5374;42.742;23.266;2023-08-31T06:54:42;6.47;;;2.42;;
10651;SDS011;5374;42.742;23.266;2023-08-31T06:57:30;4.85;;;2.25;;
10651;SDS011;5374;42.742;23.266;2023-08-31T07:00:19;7.70;;;2.90;;
10651;SDS011;5374;42.742;23.266;2023-08-31T07:03:06;14.13;;;3.22;;
10651;SDS011;5374;42.742;23.266;2023-08-31T07:05:53;9.83;;;3.53;;
10651;SDS011;5374;42.742;23.266;2023-08-31T07:08:40;4.63;;;3.03;;
10651;SDS011;5374;42.742;23.266;2023-08-31T07:11:30;42.93;;;6.40;;
10651;SDS011;5374;42.742;23.266;2023-08-31T07:14:17;19.43;;;3.37;;
10651;SDS011;5374;42.742;23.266;2023-08-31T07:17:06;9.73;;;3.63;;
10651;SDS011;5374;42.742;23.266;2023-08-31T08:34:21;24.70;;;4.70;;
10651;SDS011;5374;42.742;23.266;2023-08-31T08:37:08;5.90;;;2.97;;
10651;SDS011;5374;42.742;23.266;2023-08-31T08:39:55;44.27;;;6.40;;
10651;SDS011;5374;42.742;23.266;2023-08-31T08:42:43;12.60;;;4.70;;
10651;SDS011;5374;42.742;23.266;2023-08-31T08:45:35;43.83;;;6.77;;
10651;SDS011;5374;42.742;23.266;2023-08-31T08:48:24;9.60;;;4.67;;
10651;SDS011;5374;42.742;23.266;2023-08-31T08:51:12;16.07;;;5.30;;
10651;SDS011;5374;42.742;23.266;2023-08-31T08:54:00;15.37;;;4.93;;
10651;SDS011;5374;42.742;23.266;2023-08-31T08:56:48;16.03;;;4.67;;
10651;SDS011;5374;42.742;23.266;2023-08-31T08:59:35;6.03;;;4.30;;
10651;SDS011;5374;42.742;23.266;2023-08-31T09:02:23;14.03;;;5.47;;
10651;SDS011;5374;42.742;23.266;2023-08-31T09:05:10;60.10;;;9.00;;
10651;SDS011;5374;42.742;23.266;2023-08-31T09:08:01;23.77;;;6.00;;
10651;SDS011;5374;42.742;23.266;2023-08-31T09:10:50;34.70;;;6.00;;
10651;SDS011;5374;42.742;23.266;2023-08-31T09:13:38;19.63;;;4.50;;
10651;SDS011;5374;42.742;23.266;2023-08-31T09:16:25;8.47;;;4.83;;
10651;SDS011;5374;42.742;23.266;2023-08-31T09:19:17;26.63;;;6.20;;
10651;SDS011;5374;42.742;23.266;2023-08-31T09:22:05;21.67;;;5.50;;
10651;SDS011;5374;42.742;23.266;2023-08-31T09:24:54;23.77;;;5.47;;
10651;SDS011;5374;42.742;23.266;2023-08-31T09:27:41;14.17;;;5.17;;
10651;SDS011;5374;42.742;23.266;2023-08-31T09:30:34;46.57;;;7.43;;
10651;SDS011;5374;42.742;23.266;2023-08-31T09:33:21;9.13;;;5.13;;
10651;SDS011;5374;42.742;23.266;2023-08-31T09:36:08;12.33;;;5.00;;
10651;SDS011;5374;42.742;23.266;2023-08-31T09:38:57;7.07;;;4.80;;
10651;SDS011;5374;42.742;23.266;2023-08-31T09:41:55;5.87;;;4.50;;
10651;SDS011;5374;42.742;23.266;2023-08-31T09:44:45;16.17;;;5.30;;
10651;SDS011;5374;42.742;23.266;2023-08-31T09:47:35;29.10;;;6.23;;
10651;SDS011;5374;42.742;23.266;2023-08-31T09:50:23;15.07;;;5.23;;
10651;SDS011;5374;42.742;23.266;2023-08-31T09:53:12;9.40;;;4.97;;
10651;SDS011;5374;42.742;23.266;2023-08-31T09:55:59;8.90;;;5.20;;
10651;SDS011;5374;42.742;23.266;2023-08-31T09:58:47;16.63;;;5.37;;
10651;SDS011;5374;42.742;23.266;2023-08-31T10:01:36;6.00;;;4.87;;
10651;SDS011;5374;42.742;23.266;2023-08-31T10:04:23;18.87;;;5.93;;
10651;SDS011;5374;42.742;23.266;2023-08-31T10:07:11;12.93;;;5.13;;
10651;SDS011;5374;42.742;23.266;2023-08-31T10:09:59;12.23;;;4.83;;
10651;SDS011;5374;42.742;23.266;2023-08-31T10:12:48;6.93;;;5.43;;
10651;SDS011;5374;42.742;23.266;2023-08-31T10:15:38;15.47;;;5.87;;
10651;SDS011;5374;42.742;23.266;2023-08-31T10:18:25;9.37;;;5.43;;
10651;SDS011;5374;42.742;23.266;2023-08-31T10:21:15;31.27;;;7.00;;
10651;SDS011;5374;42.742;23.266;2023-08-31T10:24:03;9.90;;;5.50;;
10651;SDS011;5374;42.742;23.266;2023-08-31T10:26:52;23.27;;;6.73;;
10651;SDS011;5374;42.742;23.266;2023-08-31T10:29:39;17.57;;;5.00;;
10651;SDS011;5374;42.742;23.266;2023-08-31T10:32:27;15.17;;;5.63;;
10651;SDS011;5374;42.742;23.266;2023-08-31T10:35:15;35.97;;;6.77;;
10651;SDS011;5374;42.742;23.266;2023-08-31T10:38:13;22.57;;;5.63;;
10651;SDS011;5374;42.742;23.266;2023-08-31T10:41:00;16.37;;;5.60;;
10651;SDS011;5374;42.742;23.266;2023-08-31T10:44:17;8.47;;;4.90;;
10651;SDS011;5374;42.742;23.266;2023-08-31T10:47:05;45.63;;;7.47;;
10651;SDS011;5374;42.742;23.266;2023-08-31T10:49:55;5.93;;;4.50;;
10651;SDS011;5374;42.742;23.266;2023-08-31T10:52:45;10.60;;;4.50;;
10651;SDS011;5374;42.742;23.266;2023-08-31T10:55:33;9.83;;;4.23;;
10651;SDS011;5374;42.742;23.266;2023-08-31T10:58:20;4.87;;;4.17;;
10651;SDS011;5374;42.742;23.266;2023-08-31T11:01:07;7.50;;;4.27;;
10651;SDS011;5374;42.742;23.266;2023-08-31T11:03:57;5.57;;;4.57;;
10651;SDS011;5374;42.742;23.266;2023-08-31T11:06:46;7.77;;;4.10;;
10651;SDS011;5374;42.742;23.266;2023-08-31T11:09:33;8.13;;;4.73;;
10651;SDS011;5374;42.742;23.266;2023-08-31T11:12:22;7.80;;;4.47;;
10651;SDS011;5374;42.742;23.266;2023-08-31T11:15:13;6.63;;;4.27;;
10651;SDS011;5374;42.742;23.266;2023-08-31T11:18:00;7.37;;;4.40;;
10651;SDS011;5374;42.742;23.266;2023-08-31T11:20:49;8.23;;;4.20;;
10651;SDS011;5374;42.742;23.266;2023-08-31T11:23:38;5.63;;;3.90;;
10651;SDS011;5374;42.742;23.266;2023-08-31T11:26:25;6.47;;;3.70;;
10651;SDS011;5374;42.742;23.266;2023-08-31T11:29:13;18.87;;;4.40;;
10651;SDS011;5374;42.742;23.266;2023-08-31T11:32:00;10.77;;;3.80;;
10651;SDS011;5374;42.742;23.266;2023-08-31T11:34:48;16.87;;;3.70;;
10651;SDS011;5374;42.742;23.266;2023-08-31T11:37:35;7.30;;;4.30;;
10651;SDS011;5374;42.742;23.266;2023-08-31T11:40:24;11.00;;;4.10;;
10651;SDS011;5374;42.742;23.266;2023-08-31T11:43:14;4.63;;;3.03;;
10651;SDS011;5374;42.742;23.266;2023-08-31T11:46:02;11.30;;;3.47;;
10651;SDS011;5374;42.742;23.266;2023-08-31T11:48:49;5.57;;;3.63;;
10651;SDS011;5374;42.742;23.266;2023-08-31T11:51:36;3.73;;;3.30;;
10651;SDS011;5374;42.742;23.266;2023-08-31T11:54:26;7.53;;;3.67;;
10651;SDS011;5374;42.742;23.266;2023-08-31T11:57:14;7.40;;;3.40;;
10651;SDS011;5374;42.742;23.266;2023-08-31T12:00:02;4.67;;;3.20;;
10651;SDS011;5374;42.742;23.266;2023-08-31T12:02:55;5.37;;;3.40;;
10651;SDS011;5374;42.742;23.266;2023-08-31T12:05:47;5.60;;;3.10;;
10651;SDS011;5374;42.742;23.266;2023-08-31T12:08:34;9.50;;;3.57;;
10651;SDS011;5374;42.742;23.266;2023-08-31T12:11:23;6.03;;;3.30;;
10651;SDS011;5374;42.742;23.266;2023-08-31T12:17:18;5.53;;;3.13;;
10651;SDS011;5374;42.742;23.266;2023-08-31T12:20:06;7.77;;;3.97;;
10651;SDS011;5374;42.742;23.266;2023-08-31T12:22:55;6.80;;;3.50;;
10651;SDS011;5374;42.742;23.266;2023-08-31T12:25:45;5.47;;;3.30;;
10651;SDS011;5374;42.742;23.266;2023-08-31T12:28:33;5.50;;;3.40;;
10651;SDS011;5374;42.742;23.266;2023-08-31T12:31:22;5.17;;;3.50;;
10651;SDS011;5374;42.742;23.266;2023-08-31T12:34:10;5.20;;;3.40;;
10651;SDS011;5374;42.742;23.266;2023-08-31T12:36:57;7.17;;;3.80;;
10651;SDS011;5374;42.742;23.266;2023-08-31T12:39:46;7.43;;;3.40;;
10651;SDS011;5374;42.742;23.266;2023-08-31T12:42:33;7.90;;;3.37;;
10651;SDS011;5374;42.742;23.266;2023-08-31T12:45:20;6.23;;;3.30;;
10651;SDS011;5374;42.742;23.266;2023-08-31T12:48:09;7.10;;;3.50;;
10651;SDS011;5374;42.742;23.266;2023-08-31T12:50:56;6.57;;;3.03;;
10651;SDS011;5374;42.742;23.266;2023-08-31T12:53:43;7.43;;;3.40;;
10651;SDS011;5374;42.742;23.266;2023-08-31T12:56:31;3.90;;;3.10;;
10651;SDS011;5374;42.742;23.266;2023-08-31T12:59:18;3.93;;;3.20;;
10651;SDS011;5374;42.742;23.266;2023-08-31T13:02:05;4.87;;;3.30;;
10651;SDS011;5374;42.742;23.266;2023-08-31T13:04:57;5.20;;;3.20;;
10651;SDS011;5374;42.742;23.266;2023-08-31T13:07:44;6.70;;;3.00;;
10651;SDS011;5374;42.742;23.266;2023-08-31T13:10:31;9.67;;;3.17;;
10651;SDS011;5374;42.742;23.266;2023-08-31T13:13:18;7.13;;;3.13;;
10651;SDS011;5374;42.742;23.266;2023-08-31T13:16:05;3.63;;;3.00;;
10651;SDS011;5374;42.742;23.266;2023-08-31T13:18:53;7.10;;;3.17;;
10651;SDS011;5374;42.742;23.266;2023-08-31T13:21:41;8.17;;;3.60;;
10651;SDS011;5374;42.742;23.266;2023-08-31T13:24:29;5.47;;;3.50;;
10651;SDS011;5374;42.742;23.266;2023-08-31T13:27:16;4.97;;;3.30;;
10651;SDS011;5374;42.742;23.266;2023-08-31T13:30:03;4.43;;;3.30;;
10651;SDS011;5374;42.742;23.266;2023-08-31T13:32:52;11.90;;;3.80;;
10651;SDS011;5374;42.742;23.266;2023-08-31T13:35:39;8.23;;;3.17;;
10651;SDS011;5374;42.742;23.266;2023-08-31T13:38:27;5.43;;;3.17;;
10651;SDS011;5374;42.742;23.266;2023-08-31T13:41:14;4.07;;;3.10;;
10651;SDS011;5374;42.742;23.266;2023-08-31T13:44:01;8.13;;;3.67;;
10651;SDS011;5374;42.742;23.266;2023-08-31T13:46:48;8.83;;;3.73;;
10651;SDS011;5374;42.742;23.266;2023-08-31T13:49:36;7.17;;;3.40;;
10651;SDS011;5374;42.742;23.266;2023-08-31T13:52:23;6.63;;;3.63;;
10651;SDS011;5374;42.742;23.266;2023-08-31T13:55:11;5.83;;;3.37;;
10651;SDS011;5374;42.742;23.266;2023-08-31T13:58:03;5.97;;;3.23;;
10651;SDS011;5374;42.742;23.266;2023-08-31T14:00:51;7.60;;;3.37;;
10651;SDS011;5374;42.742;23.266;2023-08-31T14:03:38;4.63;;;3.10;;
10651;SDS011;5374;42.742;23.266;2023-08-31T14:06:26;11.13;;;4.00;;
10651;SDS011;5374;42.742;23.266;2023-08-31T14:09:13;12.43;;;3.70;;
10651;SDS011;5374;42.742;23.266;2023-08-31T14:12:02;6.20;;;3.43;;
10651;SDS011;5374;42.742;23.266;2023-08-31T14:14:49;7.60;;;3.30;;
10651;SDS011;5374;42.742;23.266;2023-08-31T14:17:36;5.83;;;3.20;;
10651;SDS011;5374;42.742;23.266;2023-08-31T14:20:23;11.67;;;3.70;;
10651;SDS011;5374;42.742;23.266;2023-08-31T14:23:10;6.33;;;3.60;;
10651;SDS011;5374;42.742;23.266;2023-08-31T14:26:00;11.40;;;3.67;;
10651;SDS011;5374;42.742;23.266;2023-08-31T14:28:49;9.13;;;3.50;;
10651;SDS011;5374;42.742;23.266;2023-08-31T14:31:37;11.90;;;3.63;;
10651;SDS011;5374;42.742;23.266;2023-08-31T14:34:24;9.60;;;3.90;;
10651;SDS011;5374;42.742;23.266;2023-08-31T14:37:11;12.40;;;3.60;;
10651;SDS011;5374;42.742;23.266;2023-08-31T14:39:58;54.87;;;8.70;;
10651;SDS011;5374;42.742;23.266;2023-08-31T14:42:46;29.07;;;5.40;;
10651;SDS011;5374;42.742;23.266;2023-08-31T14:45:34;71.47;;;9.90;;
10651;SDS011;5374;42.742;23.266;2023-08-31T14:48:23;12.53;;;4.67;;
10651;SDS011;5374;42.742;23.266;2023-08-31T14:51:10;6.63;;;4.10;;
10651;SDS011;5374;42.742;23.266;2023-08-31T14:53:58;14.17;;;3.90;;
10651;SDS011;5374;42.742;23.266;2023-08-31T14:56:46;7.00;;;3.50;;
10651;SDS011;5374;42.742;23.266;2023-08-31T14:59:33;13.97;;;3.73;;
10651;SDS011;5374;42.742;23.266;2023-08-31T15:02:21;12.77;;;3.67;;
10651;SDS011;5374;42.742;23.266;2023-08-31T15:05:08;48.30;;;5.63;;
10651;SDS011;5374;42.742;23.266;2023-08-31T15:07:55;11.97;;;3.50;;
10651;SDS011;5374;42.742;23.266;2023-08-31T15:10:43;9.73;;;3.20;;
10651;SDS011;5374;42.742;23.266;2023-08-31T15:13:30;19.67;;;4.17;;
10651;SDS011;5374;42.742;23.266;2023-08-31T15:16:17;7.80;;;3.37;;
10651;SDS011;5374;42.742;23.266;2023-08-31T15:19:05;29.43;;;4.70;;
10651;SDS011;5374;42.742;23.266;2023-08-31T15:21:53;9.63;;;3.53;;
10651;SDS011;5374;42.742;23.266;2023-08-31T15:24:40;11.70;;;3.67;;
10651;SDS011;5374;42.742;23.266;2023-08-31T15:27:28;10.03;;;3.70;;
10651;SDS011;5374;42.742;23.266;2023-08-31T15:30:16;6.47;;;2.80;;
10651;SDS011;5374;42.742;23.266;2023-08-31T15:33:03;30.93;;;4.93;;
10651;SDS011;5374;42.742;23.266;2023-08-31T15:36:00;18.07;;;3.63;;
10651;SDS011;5374;42.742;23.266;2023-08-31T15:38:49;6.00;;;3.23;;
10651;SDS011;5374;42.742;23.266;2023-08-31T15:41:36;7.17;;;3.20;;
10651;SDS011;5374;42.742;23.266;2023-08-31T15:44:24;5.50;;;3.20;;
10651;SDS011;5374;42.742;23.266;2023-08-31T15:47:11;6.33;;;3.03;;
10651;SDS011;5374;42.742;23.266;2023-08-31T15:49:58;5.03;;;3.73;;
10651;SDS011;5374;42.742;23.266;2023-08-31T15:52:46;8.20;;;3.30;;
10651;SDS011;5374;42.742;23.266;2023-08-31T15:55:33;4.10;;;3.10;;
10651;SDS011;5374;42.742;23.266;2023-08-31T15:58:20;5.73;;;3.03;;
10651;SDS011;5374;42.742;23.266;2023-08-31T16:01:08;5.67;;;3.37;;
10651;SDS011;5374;42.742;23.266;2023-08-31T16:03:55;7.00;;;3.33;;
10651;SDS011;5374;42.742;23.266;2023-08-31T16:06:43;6.03;;;3.40;;
10651;SDS011;5374;42.742;23.266;2023-08-31T16:09:31;6.67;;;3.83;;
10651;SDS011;5374;42.742;23.266;2023-08-31T16:12:19;5.87;;;3.40;;
10651;SDS011;5374;42.742;23.266;2023-08-31T16:15:07;7.87;;;3.77;;
10651;SDS011;5374;42.742;23.266;2023-08-31T16:17:54;8.50;;;4.60;;
10651;SDS011;5374;42.742;23.266;2023-08-31T16:20:41;8.47;;;5.30;;
10651;SDS011;5374;42.742;23.266;2023-08-31T16:23:29;5.37;;;4.10;;
10651;SDS011;5374;42.742;23.266;2023-08-31T16:26:17;6.13;;;3.93;;
10651;SDS011;5374;42.742;23.266;2023-08-31T16:29:05;6.63;;;3.10;;
10651;SDS011;5374;42.742;23.266;2023-08-31T16:31:52;4.23;;;3.00;;
10651;SDS011;5374;42.742;23.266;2023-08-31T16:34:39;4.30;;;2.57;;
10651;SDS011;5374;42.742;23.266;2023-08-31T16:37:26;3.43;;;2.57;;
10651;SDS011;5374;42.742;23.266;2023-08-31T16:40:13;3.80;;;2.77;;
10651;SDS011;5374;42.742;23.266;2023-08-31T16:43:02;4.17;;;2.57;;
10651;SDS011;5374;42.742;23.266;2023-08-31T16:45:50;4.73;;;3.23;;
10651;SDS011;5374;42.742;23.266;2023-08-31T16:48:37;6.03;;;3.83;;
10651;SDS011;5374;42.742;23.266;2023-08-31T16:51:24;4.27;;;2.90;;
10651;SDS011;5374;42.742;23.266;2023-08-31T16:54:12;4.87;;;2.90;;
10651;SDS011;5374;42.742;23.266;2023-08-31T16:57:00;3.73;;;2.60;;
10651;SDS011;5374;42.742;23.266;2023-08-31T16:59:48;3.97;;;2.27;;
10651;SDS011;5374;42.742;23.266;2023-08-31T17:02:36;5.43;;;2.53;;
10651;SDS011;5374;42.742;23.266;2023-08-31T17:05:23;4.00;;;2.40;;
10651;SDS011;5374;42.742;23.266;2023-08-31T17:08:10;4.07;;;2.57;;
10651;SDS011;5374;42.742;23.266;2023-08-31T17:10:57;5.27;;;2.60;;
10651;SDS011;5374;42.742;23.266;2023-08-31T17:13:44;3.00;;;2.33;;
10651;SDS011;5374;42.742;23.266;2023-08-31T17:16:33;2.87;;;2.40;;
10651;SDS011;5374;42.742;23.266;2023-08-31T17:19:21;4.80;;;2.53;;
10651;SDS011;5374;42.742;23.266;2023-08-31T17:22:08;4.73;;;2.40;;
10651;SDS011;5374;42.742;23.266;2023-08-31T17:24:55;3.90;;;2.53;;
10651;SDS011;5374;42.742;23.266;2023-08-31T17:27:43;5.27;;;2.90;;
10651;SDS011;5374;42.742;23.266;2023-08-31T17:30:30;4.93;;;3.00;;
10651;SDS011;5374;42.742;23.266;2023-08-31T17:33:19;4.53;;;2.90;;
10651;SDS011;5374;42.742;23.266;2023-08-31T17:36:07;3.67;;;2.80;;
10651;SDS011;5374;42.742;23.266;2023-08-31T17:38:54;4.43;;;3.00;;
10651;SDS011;5374;42.742;23.266;2023-08-31T17:41:41;3.10;;;2.50;;
10651;SDS011;5374;42.742;23.266;2023-08-31T17:44:28;4.13;;;2.87;;
10651;SDS011;5374;42.742;23.266;2023-08-31T17:47:15;6.73;;;2.97;;
10651;SDS011;5374;42.742;23.266;2023-08-31T17:50:04;6.97;;;3.77;;
10651;SDS011;5374;42.742;23.266;2023-08-31T17:52:51;9.37;;;3.40;;
10651;SDS011;5374;42.742;23.266;2023-08-31T17:55:39;4.10;;;3.20;;
10651;SDS011;5374;42.742;23.266;2023-08-31T17:58:26;3.70;;;2.83;;
10651;SDS011;5374;42.742;23.266;2023-08-31T18:01:13;4.20;;;2.77;;
10651;SDS011;5374;42.742;23.266;2023-08-31T18:04:00;6.83;;;2.97;;
10651;SDS011;5374;42.742;23.266;2023-08-31T18:06:51;5.90;;;2.70;;
10651;SDS011;5374;42.742;23.266;2023-08-31T18:09:38;5.17;;;2.73;;